x

Buoy I01 - Eastern Maine Shelf (44034) Wave Buoy

7:04pm - Fri 27th Feb 2015 All times are EST. -5 hours from GMT.

  • Sig Wave height 4.9ft
  • Peak Period 11s
  • Wind
    13mph, 18mph gusts
  • Sea Temp 38°f
  • Air Temp 24°f
  • Sea Pressure 1027.5mb
  • Buoy I01 - Eastern Maine Shelf
  • Buoy I01 - Eastern Maine Shelf

More Historic Weather Station data

Upgrade to MSW Pro to gain access to the past 30 days of data for over 8000 Wavebouys and Weather Stations around the globe.

Join Pro

Comparision Forecast

View Surf forecast
   
Fri 02/27 7:04pm 5ft 11s 13 18 mph 1027.5mb 38f 24f
6:04pm 4.5ft 11s 11 16 mph 1026.6mb 38f 23f
5:04pm 4.5ft 11s 11 16 mph 1026mb 38f 22f
4:04pm 5ft 11s 13 18 mph 1025.5mb 38f 22f
3:04pm  -   -  16 20 mph 1025.3mb 38f 20f
2:04pm 4ft 11s 11 16 mph 1025.1mb 38f 19f
1:04pm 4.5ft 16s 11 16 mph 1024.9mb 38f 18f
12:04pm 2.5ft 11s 7 13 mph 1025.3mb 38f 17f
11:04am 3ft 11s 4 9 mph 1025.6mb 38f 15f
10:04am  -   -  9 16 mph 1025.5mb 38f 15f
9:04am 3.5ft 11s 9 11 mph 1025.4mb 38f 14f
8:04am 2.5ft 4s 13 18 mph 1024.9mb 38f 14f
7:04am 3.5ft 11s 16 20 mph 1023.7mb 37f 14f
6:04am 2.5ft 4s 18 22 mph 1022.4mb 37f 14f
5:04am 3ft 4s 18 22 mph 1021.1mb 37f 15f
4:04am  -   -  18 22 mph 1019.6mb 38f 17f
3:04am 4.5ft 11s 20 25 mph 1018.8mb 38f 18f
2:04am 2.5ft 4s 22 27 mph 1018.8mb 38f 18f
1:04am 2.5ft 4s 20 25 mph 1018.3mb 38f 19f
12:04am 2.5ft 4s 20 25 mph 1017.9mb 38f 19f
Thu 02/26 11:04pm 2.5ft 4s 18 25 mph 1017.3mb 38f 20f
10:04pm  -   -  16 20 mph 1016.6mb 38f 20f
9:04pm 4ft 11s 18 22 mph 1015.8mb 38f 20f
8:04pm 3.5ft 11s 16 20 mph 1015.2mb 37f 20f
7:04pm 3ft 11s 13 18 mph 1015.3mb 37f 19f
6:04pm 3.5ft 11s 11 16 mph 1015.2mb 37f 19f
5:04pm 3.5ft 11s 11 16 mph 1014.7mb 37f 18f
4:04pm 3.5ft 11s 11 16 mph 1014.4mb 37f 17f
3:04pm 3ft 11s 13 18 mph 1014.7mb 37f 17f
2:04pm 3.5ft 11s 13 18 mph 1015.3mb 38f 17f
1:04pm 3.5ft 11s 11 18 mph 1016.1mb 38f 15f
12:04pm 3.5ft 11s 11 18 mph 1017.4mb 38f 15f
11:04am 3.5ft 11s 13 18 mph 1018.3mb 38f 14f
10:04am 2.5ft 4s 18 22 mph 1018.7mb 38f 13f
9:04am 3.5ft 4s 18 25 mph 1019mb 38f 14f
8:04am 4.5ft 11s 20 25 mph 1018.3mb 37f 15f
7:04am 3ft 4s 18 22 mph 1017.5mb 37f 16f
6:04am 3ft 4s 22 27 mph 1016.8mb 37f 18f
5:04am 5.5ft 11s 20 27 mph 1015.8mb 37f 19f
4:04am 3.5ft 4s 20 25 mph 1015.3mb 37f 21f
3:04am 6ft 11s 25 29 mph 1014.4mb 37f 22f
2:04am 4ft 4s 27 31 mph 1013.3mb 37f 23f
1:04am 4ft 4s 27 34 mph 1012.7mb 37f 25f
12:04am 5ft 8s 25 34 mph 1012.2mb 37f 26f
Wed 02/25 11:04pm 3.5ft 4s 22 27 mph 1011.2mb 37f 27f
10:04pm 5ft 11s 22 27 mph 1010.4mb 37f 28f
9:04pm 2.5ft 4s 22 27 mph 1009.2mb 37f 30f
8:04pm 3.5ft 6s 18 22 mph 1007.1mb 37f 29f
7:04pm 3.5ft 6s 18 25 mph 1006.4mb 37f 28f
6:04pm 3.5ft 8s 16 20 mph 1005.4mb 37f 28f
5:04pm 4ft 6s 18 20 mph 1004.3mb 38f 26f
4:04pm 4.5ft 4s 22 27 mph 1002.7mb 38f 26f
3:04pm 4.5ft 6s 20 22 mph 1001.4mb 38f 27f
2:04pm 4.5ft 6s 22 25 mph 1000.3mb 38f 27f
1:04pm 4.5ft 6s 20 25 mph 999.6mb 37f 27f
12:04pm 5.5ft 6s 29 40 mph 999.6mb 37f 27f
11:04am 5ft 6s 25 29 mph 999.4mb 37f 28f
10:04am 4.5ft 6s 16 18 mph 999.4mb 36f 31f
9:04am 5.5ft 6s 9 11 mph 1001.5mb 36f 31f
8:04am 7ft 8s 13 18 mph 1002.5mb 36f 31f
7:04am 6ft 8s 20 22 mph 1003.2mb 37f 31f
6:04am 7ft 8s 20 25 mph 1005.1mb 37f 32f
2:04am 8ft 6s 25 29 mph 1010mb 37f 31f
1:04am 7ft 6s 27 31 mph 1011.3mb 37f 31f
12:04am 8ft 6s 27 31 mph 1012.1mb 37f 30f
Tue 02/24 11:04pm 8ft 5s 29 36 mph 1013.4mb 37f 29f
10:04pm 6ft 6s 29 34 mph 1014.8mb 37f 28f
9:04pm 5ft 5s 27 36 mph 1016.2mb 37f 26f
7:04pm 4.5ft 5s 27 36 mph 1017.5mb 38f 24f
6:04pm 3ft 4s 22 29 mph 1017.2mb 39f 22f
5:04pm 2.5ft 4s 18 22 mph 1017.9mb 39f 19f
4:04pm 2ft 3s 18 25 mph 1018.6mb 39f 18f
2:04pm 2ft 3s 13 18 mph 1020.8mb 39f 11f
1:04pm 2ft 3s 11 16 mph 1021.7mb 38f 10f
11:04am 2.5ft 4s 13 20 mph 1022.6mb 37f 6f
10:04am 2.5ft 4s 13 18 mph 1022.7mb 36f 5f
9:04am 3.5ft 4s 18 25 mph 1022.5mb 35f 4f
8:04am 4.5ft 4s 22 29 mph 1023mb 35f 4f
7:04am 5ft 4s 25 31 mph 1022.5mb 35f 4f
6:04am 2.5ft 4s 11 38 mph 1023mb 37f 7f
5:04am 4.5ft 4s 27 31 mph 1022.8mb 38f 3f
4:04am 3.5ft 4s 25 34 mph 1021.9mb 38f 3f
3:04am 4.5ft 5s 29 38 mph 1021.6mb 38f 4f
2:04am 6ft 5s 27 38 mph 1022.1mb 38f 2f